Schedule Details


Flight Number: CTN414
Departure: Franjo Tudman (LDZA) at 17:55
Arrival: Frankfurt/main (EDDF) at 19:30
Route: OBUTI UM19 GRZ DCT SUBEN T161 PSA

Weather Information
LDZA 171200Z VRB02KT CAVOK 20/12 Q1019 NOSIG
EDDF 171220Z 11004KT 030V170 CAVOK 22/10 Q1018 NOSIG
Schedule Frequency

Route Map